sensor_id;sensor_type;location;lat;lon;timestamp;P1;durP1;ratioP1;P2;durP2;ratioP2
75584;SDS011;64162;53.508;10.476;2022-12-29T00:02:17;23.85;;;7.15;;
75584;SDS011;64162;53.508;10.476;2022-12-29T00:04:44;14.00;;;3.92;;
75584;SDS011;64162;53.508;10.476;2022-12-29T00:07:11;21.73;;;5.97;;
75584;SDS011;64162;53.508;10.476;2022-12-29T00:09:40;19.88;;;5.18;;
75584;SDS011;64162;53.508;10.476;2022-12-29T00:12:07;24.10;;;7.75;;
75584;SDS011;64162;53.508;10.476;2022-12-29T00:14:33;21.98;;;6.05;;
75584;SDS011;64162;53.508;10.476;2022-12-29T00:17:19;24.27;;;6.53;;
75584;SDS011;64162;53.508;10.476;2022-12-29T00:19:46;20.23;;;6.30;;
75584;SDS011;64162;53.508;10.476;2022-12-29T00:22:31;15.70;;;5.20;;
75584;SDS011;64162;53.508;10.476;2022-12-29T00:25:16;25.70;;;6.28;;
75584;SDS011;64162;53.508;10.476;2022-12-29T00:28:04;23.27;;;5.32;;
75584;SDS011;64162;53.508;10.476;2022-12-29T00:30:50;25.85;;;7.00;;
75584;SDS011;64162;53.508;10.476;2022-12-29T00:33:35;17.92;;;4.35;;
75584;SDS011;64162;53.508;10.476;2022-12-29T00:36:22;28.65;;;7.35;;
75584;SDS011;64162;53.508;10.476;2022-12-29T00:38:57;24.20;;;6.50;;
75584;SDS011;64162;53.508;10.476;2022-12-29T00:41:46;24.17;;;6.40;;
75584;SDS011;64162;53.508;10.476;2022-12-29T00:44:33;19.67;;;4.65;;
75584;SDS011;64162;53.508;10.476;2022-12-29T00:46:59;26.60;;;7.38;;
75584;SDS011;64162;53.508;10.476;2022-12-29T00:49:31;28.67;;;7.88;;
75584;SDS011;64162;53.508;10.476;2022-12-29T00:52:03;22.02;;;6.78;;
75584;SDS011;64162;53.508;10.476;2022-12-29T00:54:32;23.45;;;6.20;;
75584;SDS011;64162;53.508;10.476;2022-12-29T00:57:01;24.90;;;8.68;;
75584;SDS011;64162;53.508;10.476;2022-12-29T00:59:29;27.65;;;7.32;;
75584;SDS011;64162;53.508;10.476;2022-12-29T01:01:56;27.33;;;8.13;;
75584;SDS011;64162;53.508;10.476;2022-12-29T01:04:24;21.85;;;7.70;;
75584;SDS011;64162;53.508;10.476;2022-12-29T01:06:52;24.58;;;6.68;;
75584;SDS011;64162;53.508;10.476;2022-12-29T01:09:19;25.20;;;7.38;;
75584;SDS011;64162;53.508;10.476;2022-12-29T01:12:05;23.83;;;6.43;;
75584;SDS011;64162;53.508;10.476;2022-12-29T01:14:33;19.33;;;4.07;;
75584;SDS011;64162;53.508;10.476;2022-12-29T01:17:00;22.83;;;6.97;;
75584;SDS011;64162;53.508;10.476;2022-12-29T01:19:26;14.90;;;4.28;;
75584;SDS011;64162;53.508;10.476;2022-12-29T01:21:55;21.02;;;5.28;;
75584;SDS011;64162;53.508;10.476;2022-12-29T01:24:21;24.63;;;7.90;;
75584;SDS011;64162;53.508;10.476;2022-12-29T01:26:49;19.23;;;6.57;;
75584;SDS011;64162;53.508;10.476;2022-12-29T01:29:16;29.73;;;7.90;;
75584;SDS011;64162;53.508;10.476;2022-12-29T01:31:44;25.33;;;8.07;;
75584;SDS011;64162;53.508;10.476;2022-12-29T01:34:11;23.95;;;8.23;;
75584;SDS011;64162;53.508;10.476;2022-12-29T01:36:37;21.52;;;6.88;;
75584;SDS011;64162;53.508;10.476;2022-12-29T01:39:04;22.25;;;7.53;;
75584;SDS011;64162;53.508;10.476;2022-12-29T01:41:31;17.38;;;6.72;;
75584;SDS011;64162;53.508;10.476;2022-12-29T01:43:58;16.95;;;5.85;;
75584;SDS011;64162;53.508;10.476;2022-12-29T01:49:16;23.33;;;6.70;;
75584;SDS011;64162;53.508;10.476;2022-12-29T01:51:48;24.27;;;7.38;;
75584;SDS011;64162;53.508;10.476;2022-12-29T01:54:19;22.27;;;7.38;;
75584;SDS011;64162;53.508;10.476;2022-12-29T01:56:53;23.75;;;6.60;;
75584;SDS011;64162;53.508;10.476;2022-12-29T01:59:24;25.58;;;7.13;;
75584;SDS011;64162;53.508;10.476;2022-12-29T02:01:55;24.35;;;7.35;;
75584;SDS011;64162;53.508;10.476;2022-12-29T02:04:23;22.90;;;6.60;;
75584;SDS011;64162;53.508;10.476;2022-12-29T02:07:05;25.58;;;7.78;;
75584;SDS011;64162;53.508;10.476;2022-12-29T02:09:37;27.15;;;7.68;;
75584;SDS011;64162;53.508;10.476;2022-12-29T02:12:04;26.13;;;7.82;;
75584;SDS011;64162;53.508;10.476;2022-12-29T02:14:32;19.73;;;5.43;;
75584;SDS011;64162;53.508;10.476;2022-12-29T02:17:13;22.08;;;7.05;;
75584;SDS011;64162;53.508;10.476;2022-12-29T02:19:59;27.73;;;8.02;;
75584;SDS011;64162;53.508;10.476;2022-12-29T02:28:35;19.95;;;4.72;;
75584;SDS011;64162;53.508;10.476;2022-12-29T02:33:46;21.73;;;6.05;;
75584;SDS011;64162;53.508;10.476;2022-12-29T02:36:32;15.23;;;4.72;;
75584;SDS011;64162;53.508;10.476;2022-12-29T02:42:08;20.27;;;5.55;;
75584;SDS011;64162;53.508;10.476;2022-12-29T02:44:55;21.90;;;5.32;;
75584;SDS011;64162;53.508;10.476;2022-12-29T02:50:33;23.38;;;7.18;;
75584;SDS011;64162;53.508;10.476;2022-12-29T02:53:05;20.70;;;5.03;;
75584;SDS011;64162;53.508;10.476;2022-12-29T02:55:35;19.13;;;5.00;;
75584;SDS011;64162;53.508;10.476;2022-12-29T03:00:37;18.02;;;5.88;;
75584;SDS011;64162;53.508;10.476;2022-12-29T03:03:21;24.88;;;7.25;;
75584;SDS011;64162;53.508;10.476;2022-12-29T03:05:57;23.13;;;6.30;;
75584;SDS011;64162;53.508;10.476;2022-12-29T03:14:41;19.13;;;4.15;;
75584;SDS011;64162;53.508;10.476;2022-12-29T03:17:40;18.48;;;5.03;;
75584;SDS011;64162;53.508;10.476;2022-12-29T03:20:18;20.70;;;5.90;;
75584;SDS011;64162;53.508;10.476;2022-12-29T03:22:53;24.65;;;6.35;;
75584;SDS011;64162;53.508;10.476;2022-12-29T03:25:30;20.63;;;6.57;;
75584;SDS011;64162;53.508;10.476;2022-12-29T03:28:08;17.77;;;5.57;;
75584;SDS011;64162;53.508;10.476;2022-12-29T03:30:42;21.30;;;5.40;;
75584;SDS011;64162;53.508;10.476;2022-12-29T03:33:18;19.00;;;5.05;;
75584;SDS011;64162;53.508;10.476;2022-12-29T03:35:50;15.95;;;4.40;;
75584;SDS011;64162;53.508;10.476;2022-12-29T03:38:24;15.85;;;6.05;;
75584;SDS011;64162;53.508;10.476;2022-12-29T03:41:15;14.40;;;3.97;;
75584;SDS011;64162;53.508;10.476;2022-12-29T03:43:46;13.50;;;4.68;;
75584;SDS011;64162;53.508;10.476;2022-12-29T03:46:13;14.07;;;4.45;;
75584;SDS011;64162;53.508;10.476;2022-12-29T03:48:41;14.70;;;4.30;;
75584;SDS011;64162;53.508;10.476;2022-12-29T03:51:08;14.30;;;4.28;;
75584;SDS011;64162;53.508;10.476;2022-12-29T03:53:35;5.28;;;1.75;;
75584;SDS011;64162;53.508;10.476;2022-12-29T03:56:02;12.45;;;3.70;;
75584;SDS011;64162;53.508;10.476;2022-12-29T03:58:29;10.82;;;3.35;;
75584;SDS011;64162;53.508;10.476;2022-12-29T04:01:08;10.32;;;3.38;;
75584;SDS011;64162;53.508;10.476;2022-12-29T04:03:36;10.65;;;2.55;;
75584;SDS011;64162;53.508;10.476;2022-12-29T04:06:03;12.73;;;3.28;;
75584;SDS011;64162;53.508;10.476;2022-12-29T04:08:38;9.05;;;3.90;;
75584;SDS011;64162;53.508;10.476;2022-12-29T04:11:05;12.82;;;4.50;;
75584;SDS011;64162;53.508;10.476;2022-12-29T04:13:32;8.52;;;2.85;;
75584;SDS011;64162;53.508;10.476;2022-12-29T04:15:58;4.75;;;1.52;;
75584;SDS011;64162;53.508;10.476;2022-12-29T04:18:26;11.07;;;3.88;;
75584;SDS011;64162;53.508;10.476;2022-12-29T04:20:52;6.95;;;2.30;;
75584;SDS011;64162;53.508;10.476;2022-12-29T04:23:35;9.77;;;2.42;;
75584;SDS011;64162;53.508;10.476;2022-12-29T04:26:06;7.22;;;2.42;;
75584;SDS011;64162;53.508;10.476;2022-12-29T04:28:46;8.52;;;3.25;;
75584;SDS011;64162;53.508;10.476;2022-12-29T04:31:33;10.93;;;2.47;;
75584;SDS011;64162;53.508;10.476;2022-12-29T04:34:00;10.13;;;2.83;;
75584;SDS011;64162;53.508;10.476;2022-12-29T04:36:27;8.75;;;3.40;;
75584;SDS011;64162;53.508;10.476;2022-12-29T04:39:13;4.05;;;1.25;;
75584;SDS011;64162;53.508;10.476;2022-12-29T04:41:41;8.77;;;3.28;;
75584;SDS011;64162;53.508;10.476;2022-12-29T04:44:15;10.18;;;2.60;;
75584;SDS011;64162;53.508;10.476;2022-12-29T04:47:00;5.88;;;2.15;;
75584;SDS011;64162;53.508;10.476;2022-12-29T04:49:37;5.88;;;1.88;;
75584;SDS011;64162;53.508;10.476;2022-12-29T04:52:43;6.00;;;1.00;;
75584;SDS011;64162;53.508;10.476;2022-12-29T04:55:12;8.48;;;2.92;;
75584;SDS011;64162;53.508;10.476;2022-12-29T04:57:39;5.07;;;2.10;;
75584;SDS011;64162;53.508;10.476;2022-12-29T05:00:07;9.23;;;2.33;;
75584;SDS011;64162;53.508;10.476;2022-12-29T05:02:36;6.03;;;2.67;;
75584;SDS011;64162;53.508;10.476;2022-12-29T05:05:04;7.03;;;2.25;;
75584;SDS011;64162;53.508;10.476;2022-12-29T05:07:33;10.75;;;1.70;;
75584;SDS011;64162;53.508;10.476;2022-12-29T05:10:00;7.80;;;1.92;;
75584;SDS011;64162;53.508;10.476;2022-12-29T05:12:34;6.07;;;2.60;;
75584;SDS011;64162;53.508;10.476;2022-12-29T05:15:04;8.30;;;2.42;;
75584;SDS011;64162;53.508;10.476;2022-12-29T05:17:33;4.40;;;1.58;;
75584;SDS011;64162;53.508;10.476;2022-12-29T05:19:59;6.20;;;1.55;;
75584;SDS011;64162;53.508;10.476;2022-12-29T05:22:26;7.28;;;2.05;;
75584;SDS011;64162;53.508;10.476;2022-12-29T05:24:54;7.63;;;2.47;;
75584;SDS011;64162;53.508;10.476;2022-12-29T05:27:21;8.10;;;2.40;;
75584;SDS011;64162;53.508;10.476;2022-12-29T05:30:11;6.28;;;1.73;;
75584;SDS011;64162;53.508;10.476;2022-12-29T05:32:39;6.93;;;2.13;;
75584;SDS011;64162;53.508;10.476;2022-12-29T05:35:06;8.48;;;2.10;;
75584;SDS011;64162;53.508;10.476;2022-12-29T05:37:33;11.68;;;3.15;;
75584;SDS011;64162;53.508;10.476;2022-12-29T05:40:01;6.78;;;2.75;;
75584;SDS011;64162;53.508;10.476;2022-12-29T05:42:28;13.20;;;2.30;;
75584;SDS011;64162;53.508;10.476;2022-12-29T05:45:14;8.23;;;2.53;;
75584;SDS011;64162;53.508;10.476;2022-12-29T05:47:59;6.47;;;1.85;;
75584;SDS011;64162;53.508;10.476;2022-12-29T05:50:34;5.78;;;2.50;;
75584;SDS011;64162;53.508;10.476;2022-12-29T05:53:07;7.78;;;2.10;;
75584;SDS011;64162;53.508;10.476;2022-12-29T05:55:38;9.45;;;2.45;;
75584;SDS011;64162;53.508;10.476;2022-12-29T05:58:08;7.65;;;1.98;;
75584;SDS011;64162;53.508;10.476;2022-12-29T06:00:35;5.28;;;1.45;;
75584;SDS011;64162;53.508;10.476;2022-12-29T06:03:03;8.52;;;1.73;;
75584;SDS011;64162;53.508;10.476;2022-12-29T06:05:30;8.63;;;1.33;;
75584;SDS011;64162;53.508;10.476;2022-12-29T06:07:57;6.78;;;1.65;;
75584;SDS011;64162;53.508;10.476;2022-12-29T06:10:23;8.65;;;1.98;;
75584;SDS011;64162;53.508;10.476;2022-12-29T06:12:58;4.72;;;2.03;;
75584;SDS011;64162;53.508;10.476;2022-12-29T06:15:25;6.75;;;2.67;;
75584;SDS011;64162;53.508;10.476;2022-12-29T06:17:52;6.82;;;2.65;;
75584;SDS011;64162;53.508;10.476;2022-12-29T06:20:19;5.72;;;1.63;;
75584;SDS011;64162;53.508;10.476;2022-12-29T06:22:46;4.00;;;1.35;;
75584;SDS011;64162;53.508;10.476;2022-12-29T06:25:12;3.40;;;0.73;;
75584;SDS011;64162;53.508;10.476;2022-12-29T06:27:41;6.28;;;1.10;;
75584;SDS011;64162;53.508;10.476;2022-12-29T06:30:08;5.90;;;2.17;;
75584;SDS011;64162;53.508;10.476;2022-12-29T06:32:37;7.18;;;2.42;;
75584;SDS011;64162;53.508;10.476;2022-12-29T06:35:07;4.38;;;1.38;;
75584;SDS011;64162;53.508;10.476;2022-12-29T06:37:38;6.05;;;1.70;;
75584;SDS011;64162;53.508;10.476;2022-12-29T06:40:05;7.10;;;1.85;;
75584;SDS011;64162;53.508;10.476;2022-12-29T06:42:49;6.10;;;1.23;;
75584;SDS011;64162;53.508;10.476;2022-12-29T06:45:34;4.60;;;0.88;;
75584;SDS011;64162;53.508;10.476;2022-12-29T06:48:01;5.63;;;1.23;;
75584;SDS011;64162;53.508;10.476;2022-12-29T06:50:27;7.97;;;2.17;;
75584;SDS011;64162;53.508;10.476;2022-12-29T06:52:54;7.40;;;1.80;;
75584;SDS011;64162;53.508;10.476;2022-12-29T06:55:21;9.10;;;2.33;;
75584;SDS011;64162;53.508;10.476;2022-12-29T06:57:48;11.13;;;2.55;;
75584;SDS011;64162;53.508;10.476;2022-12-29T07:00:15;7.30;;;2.65;;
75584;SDS011;64162;53.508;10.476;2022-12-29T07:02:46;13.77;;;2.78;;
75584;SDS011;64162;53.508;10.476;2022-12-29T07:05:12;11.65;;;2.97;;
75584;SDS011;64162;53.508;10.476;2022-12-29T07:07:39;9.13;;;2.97;;
75584;SDS011;64162;53.508;10.476;2022-12-29T07:10:08;7.95;;;2.20;;
75584;SDS011;64162;53.508;10.476;2022-12-29T07:12:35;8.57;;;2.40;;
75584;SDS011;64162;53.508;10.476;2022-12-29T07:15:02;9.88;;;2.60;;
75584;SDS011;64162;53.508;10.476;2022-12-29T07:17:28;8.75;;;3.15;;
75584;SDS011;64162;53.508;10.476;2022-12-29T07:19:57;9.30;;;2.53;;
75584;SDS011;64162;53.508;10.476;2022-12-29T07:22:23;7.65;;;2.90;;
75584;SDS011;64162;53.508;10.476;2022-12-29T07:24:50;7.35;;;3.33;;
75584;SDS011;64162;53.508;10.476;2022-12-29T07:27:16;7.57;;;1.73;;
75584;SDS011;64162;53.508;10.476;2022-12-29T07:29:43;6.28;;;1.80;;
75584;SDS011;64162;53.508;10.476;2022-12-29T07:32:09;8.73;;;2.30;;
75584;SDS011;64162;53.508;10.476;2022-12-29T07:34:36;7.70;;;1.77;;
75584;SDS011;64162;53.508;10.476;2022-12-29T07:37:03;7.60;;;2.22;;
75584;SDS011;64162;53.508;10.476;2022-12-29T07:39:29;5.75;;;1.67;;
75584;SDS011;64162;53.508;10.476;2022-12-29T07:41:59;7.50;;;2.15;;
75584;SDS011;64162;53.508;10.476;2022-12-29T07:44:36;6.80;;;1.38;;
75584;SDS011;64162;53.508;10.476;2022-12-29T07:47:23;2.85;;;2.25;;
75584;SDS011;64162;53.508;10.476;2022-12-29T07:49:50;9.00;;;3.42;;
75584;SDS011;64162;53.508;10.476;2022-12-29T07:52:18;3.65;;;0.68;;
75584;SDS011;64162;53.508;10.476;2022-12-29T07:54:45;5.93;;;0.82;;
75584;SDS011;64162;53.508;10.476;2022-12-29T07:57:11;5.22;;;2.08;;
75584;SDS011;64162;53.508;10.476;2022-12-29T07:59:39;7.18;;;0.80;;
75584;SDS011;64162;53.508;10.476;2022-12-29T08:02:08;7.22;;;1.92;;
75584;SDS011;64162;53.508;10.476;2022-12-29T08:04:36;5.32;;;1.65;;
75584;SDS011;64162;53.508;10.476;2022-12-29T08:07:02;6.63;;;1.65;;
75584;SDS011;64162;53.508;10.476;2022-12-29T08:09:29;4.50;;;1.63;;
75584;SDS011;64162;53.508;10.476;2022-12-29T08:11:56;7.03;;;2.13;;
75584;SDS011;64162;53.508;10.476;2022-12-29T08:14:23;8.23;;;2.05;;
75584;SDS011;64162;53.508;10.476;2022-12-29T08:16:52;6.68;;;1.35;;
75584;SDS011;64162;53.508;10.476;2022-12-29T08:19:19;5.50;;;1.08;;
75584;SDS011;64162;53.508;10.476;2022-12-29T08:24:40;5.47;;;2.22;;
75584;SDS011;64162;53.508;10.476;2022-12-29T08:27:06;7.38;;;1.55;;
75584;SDS011;64162;53.508;10.476;2022-12-29T08:29:38;5.10;;;1.90;;
75584;SDS011;64162;53.508;10.476;2022-12-29T08:32:05;10.10;;;2.45;;
75584;SDS011;64162;53.508;10.476;2022-12-29T08:34:33;7.90;;;2.47;;
75584;SDS011;64162;53.508;10.476;2022-12-29T08:37:00;6.75;;;2.13;;
75584;SDS011;64162;53.508;10.476;2022-12-29T08:39:27;5.72;;;1.27;;
75584;SDS011;64162;53.508;10.476;2022-12-29T08:42:00;5.57;;;1.40;;
75584;SDS011;64162;53.508;10.476;2022-12-29T08:44:26;4.13;;;1.83;;
75584;SDS011;64162;53.508;10.476;2022-12-29T08:46:53;8.18;;;1.83;;
75584;SDS011;64162;53.508;10.476;2022-12-29T08:49:22;3.83;;;1.75;;
75584;SDS011;64162;53.508;10.476;2022-12-29T08:51:49;3.67;;;1.38;;
75584;SDS011;64162;53.508;10.476;2022-12-29T08:54:15;4.90;;;0.75;;
75584;SDS011;64162;53.508;10.476;2022-12-29T08:56:42;3.75;;;1.58;;
75584;SDS011;64162;53.508;10.476;2022-12-29T08:59:09;4.45;;;1.45;;
75584;SDS011;64162;53.508;10.476;2022-12-29T09:01:36;9.88;;;1.27;;
75584;SDS011;64162;53.508;10.476;2022-12-29T09:04:07;5.85;;;1.40;;
75584;SDS011;64162;53.508;10.476;2022-12-29T09:06:43;5.28;;;1.35;;
75584;SDS011;64162;53.508;10.476;2022-12-29T09:09:10;7.00;;;2.10;;
75584;SDS011;64162;53.508;10.476;2022-12-29T09:11:38;8.98;;;2.40;;
75584;SDS011;64162;53.508;10.476;2022-12-29T09:14:04;6.43;;;1.23;;
75584;SDS011;64162;53.508;10.476;2022-12-29T09:16:31;4.20;;;1.52;;
75584;SDS011;64162;53.508;10.476;2022-12-29T09:18:58;4.70;;;1.23;;
75584;SDS011;64162;53.508;10.476;2022-12-29T09:21:24;3.65;;;1.05;;
75584;SDS011;64162;53.508;10.476;2022-12-29T09:23:51;1.90;;;0.95;;
75584;SDS011;64162;53.508;10.476;2022-12-29T09:26:18;4.05;;;0.88;;
75584;SDS011;64162;53.508;10.476;2022-12-29T09:28:44;3.70;;;0.73;;
75584;SDS011;64162;53.508;10.476;2022-12-29T09:31:11;6.18;;;0.85;;
75584;SDS011;64162;53.508;10.476;2022-12-29T09:33:38;3.67;;;1.02;;
75584;SDS011;64162;53.508;10.476;2022-12-29T09:36:05;3.33;;;0.55;;
75584;SDS011;64162;53.508;10.476;2022-12-29T09:38:32;3.15;;;1.08;;
75584;SDS011;64162;53.508;10.476;2022-12-29T09:41:18;4.05;;;1.13;;
75584;SDS011;64162;53.508;10.476;2022-12-29T09:46:49;4.40;;;0.73;;
75584;SDS011;64162;53.508;10.476;2022-12-29T09:49:26;4.03;;;0.98;;
75584;SDS011;64162;53.508;10.476;2022-12-29T09:52:01;2.25;;;0.43;;
75584;SDS011;64162;53.508;10.476;2022-12-29T09:57:18;3.75;;;0.35;;
75584;SDS011;64162;53.508;10.476;2022-12-29T09:59:48;5.18;;;1.20;;
75584;SDS011;64162;53.508;10.476;2022-12-29T10:05:16;9.50;;;1.05;;
75584;SDS011;64162;53.508;10.476;2022-12-29T10:10:40;4.68;;;1.02;;
75584;SDS011;64162;53.508;10.476;2022-12-29T10:13:27;4.53;;;0.60;;
75584;SDS011;64162;53.508;10.476;2022-12-29T10:16:26;2.28;;;1.63;;
75584;SDS011;64162;53.508;10.476;2022-12-29T10:22:26;2.65;;;0.60;;
75584;SDS011;64162;53.508;10.476;2022-12-29T10:25:15;2.17;;;0.50;;
75584;SDS011;64162;53.508;10.476;2022-12-29T10:27:49;1.98;;;1.00;;
75584;SDS011;64162;53.508;10.476;2022-12-29T10:30:17;2.10;;;0.85;;
75584;SDS011;64162;53.508;10.476;2022-12-29T10:35:44;8.48;;;1.30;;
75584;SDS011;64162;53.508;10.476;2022-12-29T10:41:51;4.85;;;0.60;;
75584;SDS011;64162;53.508;10.476;2022-12-29T10:44:28;7.50;;;1.00;;
75584;SDS011;64162;53.508;10.476;2022-12-29T10:47:32;3.85;;;0.55;;
75584;SDS011;64162;53.508;10.476;2022-12-29T10:50:02;1.75;;;0.55;;
75584;SDS011;64162;53.508;10.476;2022-12-29T10:52:29;4.50;;;0.68;;
75584;SDS011;64162;53.508;10.476;2022-12-29T10:54:58;5.28;;;0.93;;
75584;SDS011;64162;53.508;10.476;2022-12-29T10:57:31;4.15;;;1.23;;
75584;SDS011;64162;53.508;10.476;2022-12-29T11:00:00;3.75;;;1.17;;
75584;SDS011;64162;53.508;10.476;2022-12-29T11:08:35;3.95;;;0.40;;
75584;SDS011;64162;53.508;10.476;2022-12-29T11:11:05;5.60;;;1.17;;
75584;SDS011;64162;53.508;10.476;2022-12-29T11:13:49;6.78;;;1.27;;
75584;SDS011;64162;53.508;10.476;2022-12-29T11:16:56;7.35;;;0.90;;
75584;SDS011;64162;53.508;10.476;2022-12-29T11:19:20;4.18;;;0.98;;
75584;SDS011;64162;53.508;10.476;2022-12-29T11:21:49;4.28;;;0.63;;
75584;SDS011;64162;53.508;10.476;2022-12-29T11:24:26;1.55;;;0.47;;
75584;SDS011;64162;53.508;10.476;2022-12-29T11:27:13;1.58;;;0.98;;
75584;SDS011;64162;53.508;10.476;2022-12-29T11:29:43;2.65;;;0.90;;
75584;SDS011;64162;53.508;10.476;2022-12-29T11:32:20;6.53;;;1.42;;
75584;SDS011;64162;53.508;10.476;2022-12-29T11:34:53;4.72;;;1.00;;
75584;SDS011;64162;53.508;10.476;2022-12-29T11:37:23;2.50;;;0.90;;
75584;SDS011;64162;53.508;10.476;2022-12-29T11:42:33;3.22;;;0.60;;
75584;SDS011;64162;53.508;10.476;2022-12-29T11:45:06;2.17;;;0.52;;
75584;SDS011;64162;53.508;10.476;2022-12-29T11:48:00;3.10;;;0.38;;
75584;SDS011;64162;53.508;10.476;2022-12-29T11:50:33;8.52;;;0.70;;
75584;SDS011;64162;53.508;10.476;2022-12-29T11:53:14;3.65;;;1.23;;
75584;SDS011;64162;53.508;10.476;2022-12-29T11:55:54;10.05;;;0.90;;
75584;SDS011;64162;53.508;10.476;2022-12-29T11:58:30;4.13;;;0.30;;
75584;SDS011;64162;53.508;10.476;2022-12-29T12:01:44;5.45;;;0.73;;
75584;SDS011;64162;53.508;10.476;2022-12-29T12:06:34;8.80;;;0.65;;
75584;SDS011;64162;53.508;10.476;2022-12-29T12:09:10;5.78;;;0.30;;
75584;SDS011;64162;53.508;10.476;2022-12-29T12:11:42;2.70;;;0.55;;
75584;SDS011;64162;53.508;10.476;2022-12-29T12:14:14;4.07;;;0.98;;
75584;SDS011;64162;53.508;10.476;2022-12-29T12:17:19;2.47;;;1.17;;
75584;SDS011;64162;53.508;10.476;2022-12-29T12:20:12;2.00;;;0.68;;
75584;SDS011;64162;53.508;10.476;2022-12-29T12:26:08;6.10;;;1.17;;
75584;SDS011;64162;53.508;10.476;2022-12-29T12:28:56;8.82;;;1.63;;
75584;SDS011;64162;53.508;10.476;2022-12-29T12:35:06;4.18;;;0.82;;
75584;SDS011;64162;53.508;10.476;2022-12-29T12:49:43;6.30;;;0.95;;
75584;SDS011;64162;53.508;10.476;2022-12-29T13:00:00;4.78;;;0.77;;
75584;SDS011;64162;53.508;10.476;2022-12-29T13:02:34;4.15;;;0.52;;
75584;SDS011;64162;53.508;10.476;2022-12-29T13:11:17;5.57;;;0.63;;
75584;SDS011;64162;53.508;10.476;2022-12-29T13:14:01;4.85;;;0.75;;
75584;SDS011;64162;53.508;10.476;2022-12-29T13:19:40;3.72;;;0.47;;
75584;SDS011;64162;53.508;10.476;2022-12-29T13:25:26;7.07;;;1.30;;
75584;SDS011;64162;53.508;10.476;2022-12-29T13:31:15;7.18;;;0.75;;
75584;SDS011;64162;53.508;10.476;2022-12-29T13:36:42;2.92;;;0.20;;
75584;SDS011;64162;53.508;10.476;2022-12-29T13:39:25;3.45;;;0.75;;
75584;SDS011;64162;53.508;10.476;2022-12-29T13:41:57;1.95;;;0.45;;
75584;SDS011;64162;53.508;10.476;2022-12-29T13:44:27;2.28;;;1.13;;
75584;SDS011;64162;53.508;10.476;2022-12-29T13:47:01;4.35;;;0.65;;
75584;SDS011;64162;53.508;10.476;2022-12-29T13:49:46;1.30;;;1.20;;
75584;SDS011;64162;53.508;10.476;2022-12-29T13:52:17;2.85;;;0.65;;
75584;SDS011;64162;53.508;10.476;2022-12-29T14:07:46;1.27;;;0.57;;
75584;SDS011;64162;53.508;10.476;2022-12-29T14:12:59;3.92;;;0.73;;
75584;SDS011;64162;53.508;10.476;2022-12-29T14:18:46;3.38;;;0.93;;
75584;SDS011;64162;53.508;10.476;2022-12-29T14:23:41;5.78;;;0.32;;
75584;SDS011;64162;53.508;10.476;2022-12-29T14:31:50;4.28;;;0.60;;
75584;SDS011;64162;53.508;10.476;2022-12-29T14:39:42;1.83;;;0.32;;
75584;SDS011;64162;53.508;10.476;2022-12-29T14:47:44;3.92;;;0.88;;
75584;SDS011;64162;53.508;10.476;2022-12-29T14:53:40;5.88;;;0.85;;
75584;SDS011;64162;53.508;10.476;2022-12-29T14:56:09;9.02;;;1.08;;
75584;SDS011;64162;53.508;10.476;2022-12-29T14:58:44;8.18;;;0.55;;
75584;SDS011;64162;53.508;10.476;2022-12-29T15:04:33;7.00;;;0.93;;
75584;SDS011;64162;53.508;10.476;2022-12-29T15:06:59;5.85;;;0.93;;
75584;SDS011;64162;53.508;10.476;2022-12-29T15:09:31;4.78;;;0.95;;
75584;SDS011;64162;53.508;10.476;2022-12-29T15:12:12;3.83;;;1.10;;
75584;SDS011;64162;53.508;10.476;2022-12-29T15:17:28;4.40;;;1.05;;
75584;SDS011;64162;53.508;10.476;2022-12-29T15:19:57;4.18;;;1.35;;
75584;SDS011;64162;53.508;10.476;2022-12-29T15:22:43;8.60;;;1.02;;
75584;SDS011;64162;53.508;10.476;2022-12-29T15:25:15;7.93;;;2.65;;
75584;SDS011;64162;53.508;10.476;2022-12-29T15:27:48;3.30;;;1.10;;
75584;SDS011;64162;53.508;10.476;2022-12-29T15:30:17;3.53;;;0.75;;
75584;SDS011;64162;53.508;10.476;2022-12-29T15:32:44;5.72;;;0.55;;
75584;SDS011;64162;53.508;10.476;2022-12-29T15:35:32;5.72;;;1.08;;
75584;SDS011;64162;53.508;10.476;2022-12-29T15:38:16;6.43;;;0.45;;
75584;SDS011;64162;53.508;10.476;2022-12-29T15:40:52;2.83;;;1.17;;
75584;SDS011;64162;53.508;10.476;2022-12-29T15:46:10;8.65;;;1.98;;
75584;SDS011;64162;53.508;10.476;2022-12-29T15:48:40;6.82;;;0.68;;
75584;SDS011;64162;53.508;10.476;2022-12-29T15:51:28;4.97;;;1.42;;
75584;SDS011;64162;53.508;10.476;2022-12-29T15:53:57;8.95;;;1.45;;
75584;SDS011;64162;53.508;10.476;2022-12-29T15:56:28;8.85;;;1.85;;
75584;SDS011;64162;53.508;10.476;2022-12-29T15:58:58;9.50;;;1.77;;
75584;SDS011;64162;53.508;10.476;2022-12-29T16:01:30;13.50;;;1.90;;
75584;SDS011;64162;53.508;10.476;2022-12-29T16:04:02;7.75;;;1.85;;
75584;SDS011;64162;53.508;10.476;2022-12-29T16:06:37;9.07;;;1.50;;
75584;SDS011;64162;53.508;10.476;2022-12-29T16:09:14;6.78;;;3.33;;
75584;SDS011;64162;53.508;10.476;2022-12-29T16:11:50;3.13;;;0.93;;
75584;SDS011;64162;53.508;10.476;2022-12-29T16:14:26;12.30;;;1.92;;
75584;SDS011;64162;53.508;10.476;2022-12-29T16:17:09;8.45;;;0.68;;
75584;SDS011;64162;53.508;10.476;2022-12-29T16:19:42;6.32;;;1.85;;
75584;SDS011;64162;53.508;10.476;2022-12-29T16:25:31;3.50;;;1.42;;
75584;SDS011;64162;53.508;10.476;2022-12-29T16:28:13;8.27;;;1.00;;
75584;SDS011;64162;53.508;10.476;2022-12-29T16:31:03;9.88;;;1.10;;
75584;SDS011;64162;53.508;10.476;2022-12-29T16:33:53;9.25;;;1.67;;
75584;SDS011;64162;53.508;10.476;2022-12-29T16:36:24;8.05;;;0.93;;
75584;SDS011;64162;53.508;10.476;2022-12-29T16:50:42;7.25;;;0.73;;
75584;SDS011;64162;53.508;10.476;2022-12-29T16:53:26;5.40;;;1.05;;
75584;SDS011;64162;53.508;10.476;2022-12-29T16:59:08;13.32;;;2.40;;
75584;SDS011;64162;53.508;10.476;2022-12-29T17:01:59;8.32;;;2.20;;
75584;SDS011;64162;53.508;10.476;2022-12-29T17:04:29;7.05;;;0.73;;
75584;SDS011;64162;53.508;10.476;2022-12-29T17:06:59;10.48;;;1.30;;
75584;SDS011;64162;53.508;10.476;2022-12-29T17:09:26;10.10;;;2.53;;
75584;SDS011;64162;53.508;10.476;2022-12-29T17:11:58;7.82;;;2.35;;
75584;SDS011;64162;53.508;10.476;2022-12-29T17:14:36;9.80;;;1.55;;
75584;SDS011;64162;53.508;10.476;2022-12-29T17:17:11;18.92;;;3.13;;
75584;SDS011;64162;53.508;10.476;2022-12-29T17:19:46;18.10;;;2.08;;
75584;SDS011;64162;53.508;10.476;2022-12-29T17:22:22;10.95;;;2.13;;
75584;SDS011;64162;53.508;10.476;2022-12-29T17:24:53;8.20;;;2.08;;
75584;SDS011;64162;53.508;10.476;2022-12-29T17:27:23;16.17;;;1.65;;
75584;SDS011;64162;53.508;10.476;2022-12-29T17:29:57;11.95;;;1.55;;
75584;SDS011;64162;53.508;10.476;2022-12-29T17:32:26;9.10;;;1.40;;
75584;SDS011;64162;53.508;10.476;2022-12-29T17:34:56;8.63;;;1.30;;
75584;SDS011;64162;53.508;10.476;2022-12-29T17:39:49;10.05;;;3.08;;
75584;SDS011;64162;53.508;10.476;2022-12-29T17:42:19;11.27;;;2.17;;
75584;SDS011;64162;53.508;10.476;2022-12-29T17:44:45;6.68;;;1.25;;
75584;SDS011;64162;53.508;10.476;2022-12-29T17:47:12;9.52;;;1.30;;
75584;SDS011;64162;53.508;10.476;2022-12-29T17:49:41;15.45;;;1.75;;
75584;SDS011;64162;53.508;10.476;2022-12-29T17:52:12;11.48;;;0.90;;
75584;SDS011;64162;53.508;10.476;2022-12-29T17:54:41;4.38;;;0.77;;
75584;SDS011;64162;53.508;10.476;2022-12-29T17:57:19;8.75;;;1.17;;
75584;SDS011;64162;53.508;10.476;2022-12-29T17:59:46;13.68;;;1.15;;
75584;SDS011;64162;53.508;10.476;2022-12-29T18:02:27;9.80;;;1.00;;